sensor_id;sensor_type;location;lat;lon;timestamp;pressure;altitude;pressure_sealevel;temperature;humidity
11808;BME280;5961;42.640;23.380;2023-07-28T00:02:02;94157.31;;;18.89;50.91
11808;BME280;5961;42.640;23.380;2023-07-28T00:04:29;94148.50;;;18.85;50.75
11808;BME280;5961;42.640;23.380;2023-07-28T00:06:55;94139.22;;;18.75;50.85
11808;BME280;5961;42.640;23.380;2023-07-28T00:09:22;94156.16;;;18.86;51.40
11808;BME280;5961;42.640;23.380;2023-07-28T00:11:49;94152.72;;;18.82;51.25
11808;BME280;5961;42.640;23.380;2023-07-28T00:14:16;94158.88;;;18.86;51.19
11808;BME280;5961;42.640;23.380;2023-07-28T00:16:42;94158.09;;;18.82;50.86
11808;BME280;5961;42.640;23.380;2023-07-28T00:19:10;94147.34;;;18.82;50.73
11808;BME280;5961;42.640;23.380;2023-07-28T00:21:37;94144.59;;;18.75;50.48
11808;BME280;5961;42.640;23.380;2023-07-28T00:24:04;94155.75;;;18.74;50.17
11808;BME280;5961;42.640;23.380;2023-07-28T00:26:31;94151.91;;;18.71;50.54
11808;BME280;5961;42.640;23.380;2023-07-28T00:28:58;94148.03;;;18.65;50.84
11808;BME280;5961;42.640;23.380;2023-07-28T00:31:24;94144.19;;;18.66;51.43
11808;BME280;5961;42.640;23.380;2023-07-28T00:33:51;94146.88;;;18.62;50.90
11808;BME280;5961;42.640;23.380;2023-07-28T00:36:19;94145.34;;;18.58;50.95
11808;BME280;5961;42.640;23.380;2023-07-28T00:38:46;94146.78;;;18.45;50.81
11808;BME280;5961;42.640;23.380;2023-07-28T00:41:13;94146.38;;;18.39;51.30
11808;BME280;5961;42.640;23.380;2023-07-28T00:43:40;94150.84;;;18.10;51.66
11808;BME280;5961;42.640;23.380;2023-07-28T00:46:06;94152.00;;;18.13;51.74
11808;BME280;5961;42.640;23.380;2023-07-28T00:48:34;94158.88;;;18.00;51.82
11808;BME280;5961;42.640;23.380;2023-07-28T00:51:01;94148.38;;;17.84;52.37
11808;BME280;5961;42.640;23.380;2023-07-28T00:53:29;94150.28;;;17.80;52.91
11808;BME280;5961;42.640;23.380;2023-07-28T00:55:57;94150.28;;;17.80;53.38
11808;BME280;5961;42.640;23.380;2023-07-28T00:58:24;94146.44;;;17.81;53.72
11808;BME280;5961;42.640;23.380;2023-07-28T01:00:50;94146.50;;;17.88;54.25
11808;BME280;5961;42.640;23.380;2023-07-28T01:03:18;94148.78;;;17.83;54.57
11808;BME280;5961;42.640;23.380;2023-07-28T01:05:57;94151.03;;;17.77;53.91
11808;BME280;5961;42.640;23.380;2023-07-28T01:08:32;94146.22;;;17.53;55.21
11808;BME280;5961;42.640;23.380;2023-07-28T01:11:00;94146.75;;;17.22;57.12
11808;BME280;5961;42.640;23.380;2023-07-28T01:13:27;94146.50;;;16.97;58.26
11808;BME280;5961;42.640;23.380;2023-07-28T01:15:54;94148.84;;;16.65;60.36
11808;BME280;5961;42.640;23.380;2023-07-28T01:18:21;94120.44;;;16.27;61.22
11808;BME280;5961;42.640;23.380;2023-07-28T01:20:49;94144.69;;;16.38;61.97
11808;BME280;5961;42.640;23.380;2023-07-28T01:23:25;94117.34;;;16.25;61.71
11808;BME280;5961;42.640;23.380;2023-07-28T01:26:03;94151.31;;;16.47;61.95
11808;BME280;5961;42.640;23.380;2023-07-28T01:28:33;94137.50;;;16.45;62.25
11808;BME280;5961;42.640;23.380;2023-07-28T01:31:02;94130.38;;;16.27;62.89
11808;BME280;5961;42.640;23.380;2023-07-28T01:33:29;94140.22;;;16.16;63.85
11808;BME280;5961;42.640;23.380;2023-07-28T01:35:56;94141.47;;;15.96;64.93
11808;BME280;5961;42.640;23.380;2023-07-28T01:38:23;94141.94;;;15.75;66.03
11808;BME280;5961;42.640;23.380;2023-07-28T01:40:50;94135.47;;;15.50;66.99
11808;BME280;5961;42.640;23.380;2023-07-28T01:43:17;94137.41;;;15.30;68.20
11808;BME280;5961;42.640;23.380;2023-07-28T01:45:45;94139.94;;;15.19;68.68
11808;BME280;5961;42.640;23.380;2023-07-28T01:48:12;94138.88;;;15.01;69.82
11808;BME280;5961;42.640;23.380;2023-07-28T01:50:38;94128.91;;;14.79;69.91
11808;BME280;5961;42.640;23.380;2023-07-28T01:53:06;94134.63;;;14.77;70.50
11808;BME280;5961;42.640;23.380;2023-07-28T01:55:32;94140.69;;;14.74;70.60
11808;BME280;5961;42.640;23.380;2023-07-28T01:58:00;94147.72;;;14.63;71.03
11808;BME280;5961;42.640;23.380;2023-07-28T02:00:28;94141.97;;;14.61;71.26
11808;BME280;5961;42.640;23.380;2023-07-28T02:02:56;94136.41;;;14.51;70.51
11808;BME280;5961;42.640;23.380;2023-07-28T02:05:24;94148.88;;;14.62;70.06
11808;BME280;5961;42.640;23.380;2023-07-28T02:07:50;94112.41;;;14.54;69.96
11808;BME280;5961;42.640;23.380;2023-07-28T02:10:17;94143.63;;;14.89;70.06
11808;BME280;5961;42.640;23.380;2023-07-28T02:12:44;94145.28;;;14.97;68.67
11808;BME280;5961;42.640;23.380;2023-07-28T02:15:11;94140.13;;;15.07;68.19
11808;BME280;5961;42.640;23.380;2023-07-28T02:17:38;94144.44;;;15.15;67.11
11808;BME280;5961;42.640;23.380;2023-07-28T02:20:10;94144.09;;;15.17;67.02
11808;BME280;5961;42.640;23.380;2023-07-28T02:22:38;94146.78;;;15.17;66.45
11808;BME280;5961;42.640;23.380;2023-07-28T02:25:05;94149.81;;;15.38;66.54
11808;BME280;5961;42.640;23.380;2023-07-28T02:27:32;94144.47;;;15.42;66.60
11808;BME280;5961;42.640;23.380;2023-07-28T02:29:59;94159.09;;;15.44;65.71
11808;BME280;5961;42.640;23.380;2023-07-28T02:32:26;94140.63;;;15.39;65.52
11808;BME280;5961;42.640;23.380;2023-07-28T02:34:52;94143.59;;;15.34;65.36
11808;BME280;5961;42.640;23.380;2023-07-28T02:37:20;94155.47;;;15.56;65.47
11808;BME280;5961;42.640;23.380;2023-07-28T02:39:47;94155.91;;;15.61;65.82
11808;BME280;5961;42.640;23.380;2023-07-28T02:42:14;94154.94;;;15.73;65.30
11808;BME280;5961;42.640;23.380;2023-07-28T02:44:40;94156.13;;;15.75;65.11
11808;BME280;5961;42.640;23.380;2023-07-28T02:47:07;94156.63;;;15.84;64.47
11808;BME280;5961;42.640;23.380;2023-07-28T02:49:34;94162.41;;;15.86;64.34
11808;BME280;5961;42.640;23.380;2023-07-28T02:52:01;94124.22;;;15.67;63.49
11808;BME280;5961;42.640;23.380;2023-07-28T02:54:29;94157.53;;;15.96;62.49
11808;BME280;5961;42.640;23.380;2023-07-28T02:56:56;94149.38;;;15.85;62.53
11808;BME280;5961;42.640;23.380;2023-07-28T02:59:23;94150.22;;;15.92;63.00
11808;BME280;5961;42.640;23.380;2023-07-28T03:01:50;94152.09;;;15.88;62.57
11808;BME280;5961;42.640;23.380;2023-07-28T03:04:17;94143.63;;;15.86;61.95
11808;BME280;5961;42.640;23.380;2023-07-28T03:06:45;94150.66;;;15.95;62.26
11808;BME280;5961;42.640;23.380;2023-07-28T03:09:12;94151.47;;;15.99;62.20
11808;BME280;5961;42.640;23.380;2023-07-28T03:11:40;94152.16;;;15.92;62.20
11808;BME280;5961;42.640;23.380;2023-07-28T03:14:07;94141.47;;;15.96;62.59
11808;BME280;5961;42.640;23.380;2023-07-28T03:16:34;94152.34;;;16.06;61.89
11808;BME280;5961;42.640;23.380;2023-07-28T03:19:00;94169.59;;;16.09;61.69
11808;BME280;5961;42.640;23.380;2023-07-28T03:21:29;94162.34;;;16.09;61.40
11808;BME280;5961;42.640;23.380;2023-07-28T03:23:56;94168.66;;;16.24;61.25
11808;BME280;5961;42.640;23.380;2023-07-28T03:26:23;94159.53;;;16.32;60.80
11808;BME280;5961;42.640;23.380;2023-07-28T03:28:51;94165.78;;;16.39;60.75
11808;BME280;5961;42.640;23.380;2023-07-28T03:31:17;94166.63;;;16.47;60.92
11808;BME280;5961;42.640;23.380;2023-07-28T03:33:44;94172.13;;;16.54;61.06
11808;BME280;5961;42.640;23.380;2023-07-28T03:36:11;94174.56;;;16.66;60.45
11808;BME280;5961;42.640;23.380;2023-07-28T03:38:37;94169.97;;;16.67;59.94
11808;BME280;5961;42.640;23.380;2023-07-28T03:41:04;94168.47;;;16.69;58.80
11808;BME280;5961;42.640;23.380;2023-07-28T03:43:32;94169.69;;;16.75;59.19
11808;BME280;5961;42.640;23.380;2023-07-28T03:46:00;94172.00;;;16.77;59.81
11808;BME280;5961;42.640;23.380;2023-07-28T03:48:27;94180.88;;;16.84;60.46
11808;BME280;5961;42.640;23.380;2023-07-28T03:50:54;94184.06;;;16.93;59.48
11808;BME280;5961;42.640;23.380;2023-07-28T03:53:20;94177.22;;;16.99;58.79
11808;BME280;5961;42.640;23.380;2023-07-28T03:55:47;94147.50;;;16.82;58.22
11808;BME280;5961;42.640;23.380;2023-07-28T03:58:14;94137.56;;;16.82;59.21
11808;BME280;5961;42.640;23.380;2023-07-28T04:00:41;94183.44;;;17.11;60.16
11808;BME280;5961;42.640;23.380;2023-07-28T04:03:09;94161.97;;;17.11;60.25
11808;BME280;5961;42.640;23.380;2023-07-28T04:05:36;94172.88;;;17.25;60.04
11808;BME280;5961;42.640;23.380;2023-07-28T04:08:03;94171.34;;;17.27;60.02
11808;BME280;5961;42.640;23.380;2023-07-28T04:10:30;94181.38;;;17.34;59.79
11808;BME280;5961;42.640;23.380;2023-07-28T04:12:56;94188.28;;;17.35;59.38
11808;BME280;5961;42.640;23.380;2023-07-28T04:15:23;94193.34;;;17.40;59.17
11808;BME280;5961;42.640;23.380;2023-07-28T04:17:50;94189.13;;;17.42;59.01
11808;BME280;5961;42.640;23.380;2023-07-28T04:20:18;94169.16;;;17.40;59.33
11808;BME280;5961;42.640;23.380;2023-07-28T04:22:44;94184.56;;;17.50;58.95
11808;BME280;5961;42.640;23.380;2023-07-28T04:25:11;94191.13;;;17.49;58.90
11808;BME280;5961;42.640;23.380;2023-07-28T04:27:38;94179.19;;;17.46;59.05
11808;BME280;5961;42.640;23.380;2023-07-28T04:30:06;94189.97;;;17.53;58.79
11808;BME280;5961;42.640;23.380;2023-07-28T04:32:33;94188.50;;;17.56;59.36
11808;BME280;5961;42.640;23.380;2023-07-28T04:34:59;94190.13;;;17.64;58.89
11808;BME280;5961;42.640;23.380;2023-07-28T04:37:27;94191.63;;;17.62;60.16
11808;BME280;5961;42.640;23.380;2023-07-28T04:39:54;94193.94;;;17.63;59.84
11808;BME280;5961;42.640;23.380;2023-07-28T04:42:21;94193.16;;;17.63;59.97
11808;BME280;5961;42.640;23.380;2023-07-28T04:44:47;94193.59;;;17.68;60.35
11808;BME280;5961;42.640;23.380;2023-07-28T04:47:14;94117.25;;;17.29;60.55
11808;BME280;5961;42.640;23.380;2023-07-28T04:49:41;94187.91;;;17.80;60.38
11808;BME280;5961;42.640;23.380;2023-07-28T04:52:08;94174.44;;;17.73;60.26
11808;BME280;5961;42.640;23.380;2023-07-28T04:54:36;94186.47;;;17.93;59.96
11808;BME280;5961;42.640;23.380;2023-07-28T04:57:03;94193.84;;;18.03;59.68
11808;BME280;5961;42.640;23.380;2023-07-28T04:59:29;94191.19;;;18.10;59.47
11808;BME280;5961;42.640;23.380;2023-07-28T05:01:56;94165.72;;;17.90;59.12
11808;BME280;5961;42.640;23.380;2023-07-28T05:04:23;94182.00;;;18.15;58.59
11808;BME280;5961;42.640;23.380;2023-07-28T05:06:50;94192.03;;;18.22;58.45
11808;BME280;5961;42.640;23.380;2023-07-28T05:09:16;94188.16;;;18.19;59.10
11808;BME280;5961;42.640;23.380;2023-07-28T05:11:45;94188.56;;;18.21;59.91
11808;BME280;5961;42.640;23.380;2023-07-28T05:14:11;94171.59;;;18.10;60.35
11808;BME280;5961;42.640;23.380;2023-07-28T05:16:38;94192.88;;;18.36;60.16
11808;BME280;5961;42.640;23.380;2023-07-28T05:19:05;94198.28;;;18.40;59.92
11808;BME280;5961;42.640;23.380;2023-07-28T05:21:32;94190.59;;;18.42;59.79
11808;BME280;5961;42.640;23.380;2023-07-28T05:23:59;94179.44;;;18.40;58.92
11808;BME280;5961;42.640;23.380;2023-07-28T05:26:25;94199.13;;;18.51;58.58
11808;BME280;5961;42.640;23.380;2023-07-28T05:28:53;94197.22;;;18.55;57.84
11808;BME280;5961;42.640;23.380;2023-07-28T05:31:20;94197.97;;;18.55;57.69
11808;BME280;5961;42.640;23.380;2023-07-28T05:33:47;94188.41;;;18.58;57.22
11808;BME280;5961;42.640;23.380;2023-07-28T05:36:14;94177.13;;;18.42;57.53
11808;BME280;5961;42.640;23.380;2023-07-28T06:59:38;94158.59;;;19.65;55.97
11808;BME280;5961;42.640;23.380;2023-07-28T07:02:05;94175.53;;;19.84;56.09
11808;BME280;5961;42.640;23.380;2023-07-28T07:04:32;94163.22;;;19.86;55.91
11808;BME280;5961;42.640;23.380;2023-07-28T07:07:01;94174.78;;;19.97;56.78
11808;BME280;5961;42.640;23.380;2023-07-28T07:09:29;94172.03;;;20.01;56.31
11808;BME280;5961;42.640;23.380;2023-07-28T07:11:56;94170.13;;;20.08;54.60
11808;BME280;5961;42.640;23.380;2023-07-28T07:14:22;94169.34;;;20.18;54.46
11808;BME280;5961;42.640;23.380;2023-07-28T07:16:50;94164.69;;;20.22;57.39
11808;BME280;5961;42.640;23.380;2023-07-28T07:19:17;94167.78;;;20.32;58.49
11808;BME280;5961;42.640;23.380;2023-07-28T07:21:44;94172.38;;;20.42;54.88
11808;BME280;5961;42.640;23.380;2023-07-28T07:24:13;94173.94;;;20.43;54.18
11808;BME280;5961;42.640;23.380;2023-07-28T07:26:40;94173.13;;;20.49;55.08
11808;BME280;5961;42.640;23.380;2023-07-28T07:29:06;94175.78;;;20.60;52.91
11808;BME280;5961;42.640;23.380;2023-07-28T07:31:33;94171.53;;;20.62;52.39
11808;BME280;5961;42.640;23.380;2023-07-28T07:34:01;94185.00;;;20.69;53.87
11808;BME280;5961;42.640;23.380;2023-07-28T07:36:30;94171.47;;;20.73;53.40
11808;BME280;5961;42.640;23.380;2023-07-28T07:39:02;94179.19;;;20.74;55.53
11808;BME280;5961;42.640;23.380;2023-07-28T07:41:34;94161.53;;;20.56;52.50
11808;BME280;5961;42.640;23.380;2023-07-28T07:44:00;94168.81;;;20.69;52.92
11808;BME280;5961;42.640;23.380;2023-07-28T07:46:27;94181.09;;;20.85;53.18
11808;BME280;5961;42.640;23.380;2023-07-28T07:48:54;94179.88;;;20.93;52.67
11808;BME280;5961;42.640;23.380;2023-07-28T07:51:22;94181.44;;;20.90;55.06
11808;BME280;5961;42.640;23.380;2023-07-28T07:53:49;94178.31;;;20.99;55.29
11808;BME280;5961;42.640;23.380;2023-07-28T07:56:16;94177.53;;;21.02;53.68
11808;BME280;5961;42.640;23.380;2023-07-28T07:58:43;94185.22;;;21.14;54.58
11808;BME280;5961;42.640;23.380;2023-07-28T08:01:10;94130.56;;;20.82;52.16
11808;BME280;5961;42.640;23.380;2023-07-28T08:03:37;94182.81;;;21.26;52.98
11808;BME280;5961;42.640;23.380;2023-07-28T08:06:03;94193.53;;;21.41;52.15
11808;BME280;5961;42.640;23.380;2023-07-28T08:08:32;94167.75;;;21.29;50.08
11808;BME280;5961;42.640;23.380;2023-07-28T08:10:58;94187.69;;;21.49;50.33
11808;BME280;5961;42.640;23.380;2023-07-28T08:13:25;94181.06;;;21.57;50.33
11808;BME280;5961;42.640;23.380;2023-07-28T08:15:53;94181.78;;;21.61;50.33
11808;BME280;5961;42.640;23.380;2023-07-28T08:18:19;94181.78;;;21.65;49.95
11808;BME280;5961;42.640;23.380;2023-07-28T08:20:46;94171.69;;;21.69;49.62
11808;BME280;5961;42.640;23.380;2023-07-28T08:23:13;94178.59;;;21.77;48.08
11808;BME280;5961;42.640;23.380;2023-07-28T08:25:41;94180.84;;;21.82;48.93
11808;BME280;5961;42.640;23.380;2023-07-28T08:28:08;94180.06;;;21.88;48.79
11808;BME280;5961;42.640;23.380;2023-07-28T08:30:34;94174.63;;;21.92;48.57
11808;BME280;5961;42.640;23.380;2023-07-28T08:33:01;94174.63;;;21.92;47.80
11808;BME280;5961;42.640;23.380;2023-07-28T08:35:28;94177.31;;;21.96;47.63
11808;BME280;5961;42.640;23.380;2023-07-28T08:37:55;94153.78;;;21.85;48.27
11808;BME280;5961;42.640;23.380;2023-07-28T08:40:22;94177.28;;;21.99;46.56
11808;BME280;5961;42.640;23.380;2023-07-28T08:42:51;94182.28;;;22.01;47.16
11808;BME280;5961;42.640;23.380;2023-07-28T08:45:18;94169.50;;;22.01;47.83
11808;BME280;5961;42.640;23.380;2023-07-28T08:47:45;94179.88;;;22.06;47.82
11808;BME280;5961;42.640;23.380;2023-07-28T08:50:12;94170.56;;;22.14;47.67
11808;BME280;5961;42.640;23.380;2023-07-28T08:52:39;94165.47;;;22.20;48.69
11808;BME280;5961;42.640;23.380;2023-07-28T08:55:06;94166.56;;;22.26;47.18
11808;BME280;5961;42.640;23.380;2023-07-28T08:57:34;94172.66;;;22.33;46.82
11808;BME280;5961;42.640;23.380;2023-07-28T09:00:08;94162.53;;;22.41;46.92
11808;BME280;5961;42.640;23.380;2023-07-28T09:02:38;94162.50;;;22.45;45.79
11808;BME280;5961;42.640;23.380;2023-07-28T09:05:05;94160.88;;;22.51;46.40
11808;BME280;5961;42.640;23.380;2023-07-28T09:07:35;94148.44;;;22.57;46.60
11808;BME280;5961;42.640;23.380;2023-07-28T09:10:03;94141.41;;;22.63;45.78
11808;BME280;5961;42.640;23.380;2023-07-28T09:12:31;94140.19;;;22.67;45.20
11808;BME280;5961;42.640;23.380;2023-07-28T09:14:58;94138.22;;;22.71;44.91
11808;BME280;5961;42.640;23.380;2023-07-28T09:17:26;94135.81;;;22.77;44.48
11808;BME280;5961;42.640;23.380;2023-07-28T09:19:54;94129.53;;;22.83;43.77
11808;BME280;5961;42.640;23.380;2023-07-28T09:22:22;94125.97;;;22.90;43.47
11808;BME280;5961;42.640;23.380;2023-07-28T09:24:50;94116.25;;;22.92;42.18
11808;BME280;5961;42.640;23.380;2023-07-28T09:27:20;94113.19;;;22.90;42.02
11808;BME280;5961;42.640;23.380;2023-07-28T09:29:48;94112.38;;;22.93;42.95
11808;BME280;5961;42.640;23.380;2023-07-28T09:32:16;94107.72;;;22.94;44.80
11808;BME280;5961;42.640;23.380;2023-07-28T09:35:05;94070.41;;;22.78;44.58
11808;BME280;5961;42.640;23.380;2023-07-28T09:37:32;94108.34;;;23.05;43.26
11808;BME280;5961;42.640;23.380;2023-07-28T09:40:00;94099.41;;;23.08;42.90
11808;BME280;5961;42.640;23.380;2023-07-28T09:42:30;94100.47;;;23.14;43.23
11808;BME280;5961;42.640;23.380;2023-07-28T09:44:57;94095.63;;;23.25;42.96
11808;BME280;5961;42.640;23.380;2023-07-28T09:47:24;94088.28;;;23.26;42.52
11808;BME280;5961;42.640;23.380;2023-07-28T09:49:51;94057.03;;;23.18;43.02
11808;BME280;5961;42.640;23.380;2023-07-28T09:52:24;94088.03;;;23.43;42.70
11808;BME280;5961;42.640;23.380;2023-07-28T09:54:55;94080.19;;;23.49;43.22
11808;BME280;5961;42.640;23.380;2023-07-28T09:57:25;94077.75;;;23.55;42.44
11808;BME280;5961;42.640;23.380;2023-07-28T09:59:55;94077.22;;;23.63;41.66
11808;BME280;5961;42.640;23.380;2023-07-28T10:02:23;94080.25;;;23.69;41.35
11808;BME280;5961;42.640;23.380;2023-07-28T10:04:50;94083.94;;;23.78;42.62
11808;BME280;5961;42.640;23.380;2023-07-28T10:07:16;94082.38;;;23.81;41.00
11808;BME280;5961;42.640;23.380;2023-07-28T10:09:45;94080.72;;;23.87;39.93
11808;BME280;5961;42.640;23.380;2023-07-28T10:12:17;94082.94;;;23.92;40.00
11808;BME280;5961;42.640;23.380;2023-07-28T10:14:44;94080.50;;;23.97;40.95
11808;BME280;5961;42.640;23.380;2023-07-28T10:17:15;94082.03;;;23.98;41.24
11808;BME280;5961;42.640;23.380;2023-07-28T10:19:42;94087.31;;;24.05;39.83
11808;BME280;5961;42.640;23.380;2023-07-28T10:22:11;94074.88;;;24.08;39.73
11808;BME280;5961;42.640;23.380;2023-07-28T10:24:52;94068.16;;;24.16;39.53
11808;BME280;5961;42.640;23.380;2023-07-28T10:27:29;94080.06;;;24.22;39.23
11808;BME280;5961;42.640;23.380;2023-07-28T10:29:57;94071.44;;;24.27;39.09
11808;BME280;5961;42.640;23.380;2023-07-28T10:32:28;94066.69;;;24.31;38.62
11808;BME280;5961;42.640;23.380;2023-07-28T10:35:02;94066.69;;;24.31;38.15
11808;BME280;5961;42.640;23.380;2023-07-28T10:37:32;94053.47;;;24.33;38.31
11808;BME280;5961;42.640;23.380;2023-07-28T10:40:23;94057.59;;;24.41;38.82
11808;BME280;5961;42.640;23.380;2023-07-28T10:42:51;94053.19;;;24.47;38.83
11808;BME280;5961;42.640;23.380;2023-07-28T10:45:18;94042.66;;;24.49;39.89
11808;BME280;5961;42.640;23.380;2023-07-28T10:47:45;93993.44;;;24.28;39.53
11808;BME280;5961;42.640;23.380;2023-07-28T10:50:13;94041.09;;;24.68;37.21
11808;BME280;5961;42.640;23.380;2023-07-28T10:52:40;94040.84;;;24.79;37.20
11808;BME280;5961;42.640;23.380;2023-07-28T10:55:12;94038.34;;;24.88;37.07
11808;BME280;5961;42.640;23.380;2023-07-28T10:57:42;94035.47;;;24.95;37.36
11808;BME280;5961;42.640;23.380;2023-07-28T11:00:10;94031.41;;;25.03;38.07
11808;BME280;5961;42.640;23.380;2023-07-28T11:02:39;94026.91;;;25.13;37.49
11808;BME280;5961;42.640;23.380;2023-07-28T11:05:10;94016.97;;;25.22;36.63
11808;BME280;5961;42.640;23.380;2023-07-28T11:07:38;94019.41;;;25.33;35.83
11808;BME280;5961;42.640;23.380;2023-07-28T11:10:07;94021.44;;;25.45;35.48
11808;BME280;5961;42.640;23.380;2023-07-28T11:12:34;94002.16;;;25.39;34.15
11808;BME280;5961;42.640;23.380;2023-07-28T11:15:02;94027.16;;;25.67;34.36
11808;BME280;5961;42.640;23.380;2023-07-28T11:17:30;94013.69;;;25.76;34.38
11808;BME280;5961;42.640;23.380;2023-07-28T11:19:57;93980.22;;;25.62;34.46
11808;BME280;5961;42.640;23.380;2023-07-28T11:22:24;94011.16;;;25.97;33.57
11808;BME280;5961;42.640;23.380;2023-07-28T11:24:51;94004.22;;;26.09;34.00
11808;BME280;5961;42.640;23.380;2023-07-28T11:27:18;94004.72;;;26.20;33.93
11808;BME280;5961;42.640;23.380;2023-07-28T11:29:46;93969.84;;;26.15;33.57
11808;BME280;5961;42.640;23.380;2023-07-28T11:32:17;93988.75;;;26.47;33.52
11808;BME280;5961;42.640;23.380;2023-07-28T11:34:44;93991.06;;;26.61;33.03
11808;BME280;5961;42.640;23.380;2023-07-28T11:37:11;93993.38;;;26.76;32.37
11808;BME280;5961;42.640;23.380;2023-07-28T11:39:39;93979.31;;;26.90;32.19
11808;BME280;5961;42.640;23.380;2023-07-28T11:42:06;93988.72;;;27.01;31.25
11808;BME280;5961;42.640;23.380;2023-07-28T11:44:33;93979.41;;;27.11;31.71
11808;BME280;5961;42.640;23.380;2023-07-28T11:47:04;94001.22;;;27.24;31.54
11808;BME280;5961;42.640;23.380;2023-07-28T11:49:33;93976.63;;;27.37;31.78
11808;BME280;5961;42.640;23.380;2023-07-28T11:51:59;93979.91;;;27.44;31.47
11808;BME280;5961;42.640;23.380;2023-07-28T11:54:26;93953.38;;;27.32;30.56
11808;BME280;5961;42.640;23.380;2023-07-28T11:56:55;93977.34;;;27.62;30.69
11808;BME280;5961;42.640;23.380;2023-07-28T11:59:23;93977.41;;;27.71;30.66
11808;BME280;5961;42.640;23.380;2023-07-28T12:01:54;93981.34;;;27.83;30.64
11808;BME280;5961;42.640;23.380;2023-07-28T12:04:22;93974.28;;;27.95;30.44
11808;BME280;5961;42.640;23.380;2023-07-28T12:07:07;93968.78;;;28.07;31.07
11808;BME280;5961;42.640;23.380;2023-07-28T12:09:48;93963.38;;;28.16;31.11
11808;BME280;5961;42.640;23.380;2023-07-28T12:12:17;93965.13;;;28.32;30.59
11808;BME280;5961;42.640;23.380;2023-07-28T12:14:44;93972.19;;;28.42;29.92
11808;BME280;5961;42.640;23.380;2023-07-28T12:17:12;93967.41;;;28.55;29.83
11808;BME280;5961;42.640;23.380;2023-07-28T12:19:41;93959.28;;;28.64;29.01
11808;BME280;5961;42.640;23.380;2023-07-28T12:22:09;93957.41;;;28.61;28.04
11808;BME280;5961;42.640;23.380;2023-07-28T12:24:37;93959.31;;;28.73;28.43
11808;BME280;5961;42.640;23.380;2023-07-28T12:27:04;93923.06;;;28.60;27.69
11808;BME280;5961;42.640;23.380;2023-07-28T12:29:31;93921.59;;;28.68;27.58
11808;BME280;5961;42.640;23.380;2023-07-28T12:31:58;93957.25;;;28.96;27.77
11808;BME280;5961;42.640;23.380;2023-07-28T12:34:24;93951.34;;;29.06;27.92
11808;BME280;5961;42.640;23.380;2023-07-28T12:36:51;93949.72;;;29.18;28.28
11808;BME280;5961;42.640;23.380;2023-07-28T12:39:19;93955.09;;;29.30;29.18
11808;BME280;5961;42.640;23.380;2023-07-28T12:41:46;93946.75;;;29.43;28.94
11808;BME280;5961;42.640;23.380;2023-07-28T12:44:12;93940.38;;;29.55;27.67
11808;BME280;5961;42.640;23.380;2023-07-28T12:46:39;93945.84;;;29.64;26.52
11808;BME280;5961;42.640;23.380;2023-07-28T12:49:06;93923.31;;;29.51;26.63
11808;BME280;5961;42.640;23.380;2023-07-28T12:51:33;93940.81;;;29.72;27.00
11808;BME280;5961;42.640;23.380;2023-07-28T12:54:00;93932.75;;;29.77;26.55
11808;BME280;5961;42.640;23.380;2023-07-28T12:56:28;93890.75;;;29.53;27.42
11808;BME280;5961;42.640;23.380;2023-07-28T12:58:54;93941.00;;;29.86;27.19
11808;BME280;5961;42.640;23.380;2023-07-28T13:01:21;93933.53;;;29.96;27.14
11808;BME280;5961;42.640;23.380;2023-07-28T13:03:47;93947.06;;;30.00;27.19
11808;BME280;5961;42.640;23.380;2023-07-28T13:06:14;93955.31;;;30.00;26.96
11808;BME280;5961;42.640;23.380;2023-07-28T13:08:41;93931.69;;;30.02;26.72
11808;BME280;5961;42.640;23.380;2023-07-28T13:11:07;93930.78;;;30.05;27.01
11808;BME280;5961;42.640;23.380;2023-07-28T13:13:35;93928.97;;;29.93;27.01
11808;BME280;5961;42.640;23.380;2023-07-28T13:16:02;93922.72;;;29.92;27.08
11808;BME280;5961;42.640;23.380;2023-07-28T13:18:29;93913.91;;;29.98;27.33
11808;BME280;5961;42.640;23.380;2023-07-28T13:20:56;93895.91;;;30.06;26.69
11808;BME280;5961;42.640;23.380;2023-07-28T13:23:23;93895.28;;;30.11;26.87
11808;BME280;5961;42.640;23.380;2023-07-28T13:25:50;93905.31;;;30.14;26.84
11808;BME280;5961;42.640;23.380;2023-07-28T13:28:18;93893.78;;;30.10;27.26
11808;BME280;5961;42.640;23.380;2023-07-28T13:30:49;93901.09;;;30.04;26.81
11808;BME280;5961;42.640;23.380;2023-07-28T13:33:15;93889.19;;;30.16;27.03
11808;BME280;5961;42.640;23.380;2023-07-28T13:35:42;93881.91;;;30.13;27.11
11808;BME280;5961;42.640;23.380;2023-07-28T13:38:08;93890.25;;;30.18;26.73
11808;BME280;5961;42.640;23.380;2023-07-28T13:40:35;93849.94;;;30.10;26.49
11808;BME280;5961;42.640;23.380;2023-07-28T13:43:02;93875.59;;;30.39;27.39
11808;BME280;5961;42.640;23.380;2023-07-28T13:45:29;93889.72;;;30.47;26.83
11808;BME280;5961;42.640;23.380;2023-07-28T13:47:57;93887.88;;;30.53;26.58
11808;BME280;5961;42.640;23.380;2023-07-28T13:50:23;93884.81;;;30.60;27.01
11808;BME280;5961;42.640;23.380;2023-07-28T13:52:50;93882.00;;;30.69;26.73
11808;BME280;5961;42.640;23.380;2023-07-28T13:55:17;93881.38;;;30.74;26.42
11808;BME280;5961;42.640;23.380;2023-07-28T13:57:44;93885.59;;;30.84;26.81
11808;BME280;5961;42.640;23.380;2023-07-28T14:00:12;93885.88;;;30.86;25.92
11808;BME280;5961;42.640;23.380;2023-07-28T14:02:39;93870.34;;;30.83;26.13
11808;BME280;5961;42.640;23.380;2023-07-28T14:05:08;93894.44;;;30.88;26.02
11808;BME280;5961;42.640;23.380;2023-07-28T14:07:35;93871.06;;;30.93;26.10
11808;BME280;5961;42.640;23.380;2023-07-28T14:10:02;93870.63;;;30.94;26.03
11808;BME280;5961;42.640;23.380;2023-07-28T14:12:29;93868.19;;;30.96;26.31
11808;BME280;5961;42.640;23.380;2023-07-28T14:14:55;93879.59;;;30.95;25.50
11808;BME280;5961;42.640;23.380;2023-07-28T14:17:22;93878.22;;;30.99;26.05
11808;BME280;5961;42.640;23.380;2023-07-28T14:19:49;93880.50;;;31.01;25.56
11808;BME280;5961;42.640;23.380;2023-07-28T14:22:17;93879.09;;;31.06;26.26
11808;BME280;5961;42.640;23.380;2023-07-28T14:24:43;93873.03;;;31.02;25.99